createdAt,value
2023-06-28T00:03:17.892Z,3.15
2023-06-28T00:13:20.796Z,3.22
2023-06-28T00:23:23.197Z,2.88
2023-06-28T00:33:29.969Z,7.25
2023-06-28T00:43:32.204Z,2.05
2023-06-28T00:53:37.049Z,4.88
2023-06-28T01:03:42.482Z,5.95
2023-06-28T01:13:47.818Z,2.92
2023-06-28T01:23:50.439Z,2.90
2023-06-28T01:33:55.384Z,5.53
2023-06-28T01:44:00.173Z,5.55
2023-06-28T01:54:05.445Z,5.50
2023-06-28T02:04:10.192Z,6.03
2023-06-28T02:14:13.144Z,3.40
2023-06-28T02:24:15.646Z,3.78
2023-06-28T02:34:22.638Z,4.13
2023-06-28T02:44:28.853Z,3.08
2023-06-28T02:54:34.371Z,4.38
2023-06-28T03:04:41.200Z,3.35
2023-06-28T03:14:45.533Z,8.98
2023-06-28T03:24:48.396Z,2.95
2023-06-28T03:34:54.713Z,2.45
2023-06-28T03:44:59.121Z,4.35
2023-06-28T03:55:01.812Z,3.60
2023-06-28T04:05:06.844Z,3.15
2023-06-28T04:15:12.238Z,3.67
2023-06-28T04:25:14.632Z,3.20
2023-06-28T04:35:18.653Z,4.60
2023-06-28T04:45:21.754Z,5.03
2023-06-28T04:55:24.140Z,4.30
2023-06-28T05:05:26.589Z,3.95
2023-06-28T05:15:37.109Z,3.25
2023-06-28T05:25:40.967Z,3.97
2023-06-28T05:35:46.060Z,3.65
2023-06-28T05:45:51.758Z,2.10
2023-06-28T05:55:56.728Z,2.25
2023-06-28T06:06:03.566Z,5.38
2023-06-28T06:16:05.955Z,2.47
2023-06-28T06:26:10.664Z,5.95
2023-06-28T06:36:16.058Z,6.20
2023-06-28T06:46:21.593Z,5.32
2023-06-28T06:56:24.294Z,5.82
2023-06-28T07:06:29.020Z,4.63
2023-06-28T07:16:31.325Z,7.45
2023-06-28T07:26:36.750Z,4.28
2023-06-28T07:36:41.553Z,2.80
2023-06-28T07:46:46.143Z,2.30
2023-06-28T07:56:56.286Z,3.80
2023-06-28T08:07:01.404Z,2.40
2023-06-28T08:17:03.956Z,2.55
2023-06-28T08:27:11.399Z,5.68
2023-06-28T08:37:19.389Z,3.00
2023-06-28T08:47:29.321Z,4.40
2023-06-28T08:57:31.732Z,3.83
2023-06-28T09:07:37.542Z,9.30
2023-06-28T09:17:42.914Z,3.42
2023-06-28T09:27:47.620Z,2.88
2023-06-28T09:38:12.413Z,4.75
2023-06-28T09:48:26.093Z,5.03
2023-06-28T09:58:35.154Z,6.00
2023-06-28T10:08:39.320Z,4.43
2023-06-28T10:18:44.845Z,4.03
2023-06-28T10:28:52.261Z,3.92
2023-06-28T10:38:55.130Z,4.40
2023-06-28T10:49:01.840Z,5.47
2023-06-28T10:59:06.977Z,2.00
2023-06-28T11:09:17.248Z,5.35
2023-06-28T11:19:26.339Z,10.52
2023-06-28T11:29:31.089Z,7.35
2023-06-28T11:39:34.579Z,4.90
2023-06-28T11:49:41.745Z,4.07
2023-06-28T11:59:51.933Z,2.60
2023-06-28T12:09:59.040Z,4.38
2023-06-28T12:20:04.814Z,5.80
2023-06-28T12:30:11.694Z,4.70
2023-06-28T12:40:17.515Z,6.75
2023-06-28T12:50:22.339Z,8.38
2023-06-28T13:00:29.262Z,9.82
2023-06-28T13:10:32.954Z,6.10
2023-06-28T13:20:40.485Z,4.82
2023-06-28T13:30:47.798Z,5.10
2023-06-28T13:40:52.315Z,4.60
2023-06-28T13:51:05.562Z,3.75
2023-06-28T14:01:10.313Z,2.72
2023-06-28T14:11:20.486Z,6.30
2023-06-28T14:21:30.185Z,3.05
2023-06-28T14:31:36.146Z,2.20
2023-06-28T14:41:53.215Z,6.18
2023-06-28T14:51:57.814Z,3.25
2023-06-28T15:02:02.183Z,1.50
2023-06-28T15:12:11.993Z,3.65
2023-06-28T15:22:18.442Z,1.70
2023-06-28T15:32:34.322Z,1.98
2023-06-28T15:42:42.780Z,1.58
2023-06-28T15:52:47.447Z,2.22
2023-06-28T16:02:55.581Z,3.10
2023-06-28T16:13:06.026Z,2.63
2023-06-28T16:23:11.393Z,2.60
2023-06-28T16:33:16.745Z,2.40
2023-06-28T16:43:24.263Z,3.63
2023-06-28T16:53:31.769Z,2.40
2023-06-28T17:03:43.473Z,2.60
2023-06-28T17:13:50.748Z,3.25
2023-06-28T17:23:53.732Z,2.75
2023-06-28T17:33:56.708Z,3.58
2023-06-28T17:44:01.283Z,2.63
2023-06-28T17:54:07.609Z,3.67
2023-06-28T18:04:11.809Z,3.60
2023-06-28T18:14:14.176Z,4.10
2023-06-28T18:24:19.075Z,4.93
2023-06-28T18:34:29.480Z,3.03
2023-06-28T18:44:34.056Z,5.18
2023-06-28T18:54:38.676Z,3.83
2023-06-28T19:04:42.605Z,3.30
2023-06-28T19:14:47.315Z,3.80
2023-06-28T19:24:50.295Z,3.60
2023-06-28T19:34:58.981Z,4.25
2023-06-28T19:45:14.019Z,5.63
2023-06-28T19:55:19.307Z,5.43
2023-06-28T20:05:23.321Z,8.23
2023-06-28T20:15:27.828Z,6.30
2023-06-28T20:25:30.280Z,5.93
2023-06-28T20:35:32.541Z,7.25
2023-06-28T20:45:36.339Z,11.00
2023-06-28T20:55:41.621Z,8.75
2023-06-28T21:05:47.601Z,11.23
2023-06-28T21:15:52.132Z,14.00
2023-06-28T21:25:56.658Z,11.43
2023-06-28T21:35:59.073Z,11.52
2023-06-28T21:46:01.308Z,13.35
2023-06-28T21:56:03.716Z,12.82
2023-06-28T22:06:06.134Z,10.98
2023-06-28T22:16:15.329Z,15.13
2023-06-28T22:26:19.889Z,14.73
2023-06-28T22:36:28.039Z,11.73
2023-06-28T22:46:34.091Z,14.32
2023-06-28T22:56:37.760Z,14.82
2023-06-28T23:06:42.826Z,13.20
2023-06-28T23:16:45.443Z,13.60
2023-06-28T23:26:52.656Z,12.70
2023-06-28T23:36:58.781Z,14.35
2023-06-28T23:47:03.688Z,11.15
2023-06-28T23:57:06.331Z,11.07
